Time;durP1;ratioP1;P1;durP2;ratioP2;P2;SDS_P1;SDS_P2;PMS_P1;PMS_P2;Temp;Humidity;BMP_temperature;BMP_pressure;BME280_temperature;BME280_humidity;BME280_pressure;Samples;Min_cycle;Max_cycle;Signal;HPM_P1;HPM_P2
2023/12/11 00:00:41;;;;;;;7.25;4.22;;;;;;;;;;5070418;28;20055;-90
2023/12/11 00:03:25;;;;;;;11.85;4.88;;;;;;;;;;5082190;28;20409;-91
2023/12/11 00:06:06;;;;;;;9.20;3.95;;;;;;;;;;5068086;28;20061;-90
2023/12/11 00:08:47;;;;;;;5.53;3.25;;;;;;;;;;5070145;28;20055;-90
2023/12/11 00:11:29;;;;;;;8.35;2.80;;;;;;;;;;5054676;28;20095;-90
2023/12/11 00:14:07;;;;;;;4.93;2.95;;;;;;;;;;5076463;28;20037;-91
2023/12/11 00:16:54;;;;;;;9.90;2.33;;;;;;;;;;5069816;28;20052;-90
2023/12/11 00:19:35;;;;;;;6.60;2.53;;;;;;;;;;5066962;28;20308;-90
2023/12/11 00:22:04;;;;;;;6.50;2.22;;;;;;;;;;5067052;28;20060;-90
2023/12/11 00:24:45;;;;;;;3.85;2.00;;;;;;;;;;5059828;28;20076;-90
2023/12/11 00:27:29;;;;;;;5.50;1.50;;;;;;;;;;5069502;28;20048;-90
2023/12/11 00:30:04;;;;;;;5.75;0.90;;;;;;;;;;5068888;28;20127;-90
2023/12/11 00:32:46;;;;;;;3.25;0.65;;;;;;;;;;5068232;28;20049;-91
2023/12/11 00:35:21;;;;;;;1.70;0.98;;;;;;;;;;5067311;28;20053;-91
2023/12/11 00:37:53;;;;;;;7.07;1.50;;;;;;;;;;5066325;28;20448;-90
2023/12/11 00:44:10;;;;;;;;;;;;;;;;;;;;;
2023/12/11 00:46:54;;;;;;;9.77;2.78;;;;;;;;;;5082408;28;20060;-90
2023/12/11 00:49:29;;;;;;;9.82;2.08;;;;;;;;;;5084121;28;20049;-90
2023/12/11 00:52:12;;;;;;;7.68;1.52;;;;;;;;;;5071914;28;20070;-90
2023/12/11 00:54:41;;;;;;;12.43;2.50;;;;;;;;;;5068301;28;20059;-90
2023/12/11 00:57:17;;;;;;;12.75;1.83;;;;;;;;;;5082586;28;20146;-90
2023/12/11 00:59:59;;;;;;;9.27;1.40;;;;;;;;;;5068513;28;20052;-90
2023/12/11 01:02:30;;;;;;;2.58;1.58;;;;;;;;;;5064876;28;20061;-91
2023/12/11 01:05:01;;;;;;;9.32;1.88;;;;;;;;;;5087953;28;20052;-90
2023/12/11 01:07:42;;;;;;;3.97;1.00;;;;;;;;;;5067123;28;20349;-90
2023/12/11 01:10:16;;;;;;;18.45;2.47;;;;;;;;;;5065867;28;20044;-91
2023/12/11 01:12:48;;;;;;;20.98;2.35;;;;;;;;;;5065417;28;20110;-91
2023/12/11 01:15:31;;;;;;;10.02;2.03;;;;;;;;;;5137234;22;20055;-91
2023/12/11 01:18:14;;;;;;;10.10;1.13;;;;;;;;;;5105389;28;20051;-91
2023/12/11 01:20:55;;;;;;;16.23;1.98;;;;;;;;;;5107723;28;20051;-90
2023/12/11 01:28:49;;;;;;;13.23;1.80;;;;;;;;;;5409563;22;20048;-89
2023/12/11 01:31:30;;;;;;;13.93;2.63;;;;;;;;;;5084364;28;20059;-89
2023/12/11 01:34:11;;;;;;;17.98;2.45;;;;;;;;;;5089401;28;20086;-89
2023/12/11 01:36:56;;;;;;;18.90;2.03;;;;;;;;;;5080777;28;20052;-90
2023/12/11 01:39:38;;;;;;;17.33;2.45;;;;;;;;;;5087065;28;20056;-90
2023/12/11 01:42:21;;;;;;;12.85;2.70;;;;;;;;;;5100958;28;20043;-90
2023/12/11 01:45:02;;;;;;;27.77;2.58;;;;;;;;;;5098226;28;20127;-90
2023/12/11 01:47:45;;;;;;;19.92;2.58;;;;;;;;;;5085972;28;20051;-91
2023/12/11 01:50:35;;;;;;;21.98;3.13;;;;;;;;;;5085534;28;20047;-92
2023/12/11 01:53:16;;;;;;;17.20;2.38;;;;;;;;;;5096041;22;20119;-90
2023/12/11 01:55:51;;;;;;;24.35;3.08;;;;;;;;;;5086206;28;20044;-91
2023/12/11 01:58:32;;;;;;;25.40;2.42;;;;;;;;;;5099435;28;20044;-90
2023/12/11 02:01:00;;;;;;;29.95;2.92;;;;;;;;;;5105820;28;20036;-91
2023/12/11 02:03:41;;;;;;;17.85;2.17;;;;;;;;;;5099805;28;20043;-90
2023/12/11 02:06:22;;;;;;;20.35;2.47;;;;;;;;;;5102160;28;20089;-90
2023/12/11 02:09:06;;;;;;;34.33;3.08;;;;;;;;;;5094564;28;20072;-89
2023/12/11 02:11:44;;;;;;;11.45;2.35;;;;;;;;;;5101377;28;20109;-90
2023/12/11 02:14:14;;;;;;;19.77;2.65;;;;;;;;;;5103553;28;20058;-90
2023/12/11 02:16:48;;;;;;;27.88;3.72;;;;;;;;;;5108686;28;20056;-90
2023/12/11 02:19:31;;;;;;;32.58;3.33;;;;;;;;;;5097774;28;20120;-90
2023/12/11 02:22:23;;;;;;;26.40;2.40;;;;;;;;;;5097876;28;20051;-91
2023/12/11 02:25:08;;;;;;;25.23;3.08;;;;;;;;;;5101398;28;20052;-90
2023/12/11 02:27:55;;;;;;;19.15;3.00;;;;;;;;;;5103188;28;20048;-89
2023/12/11 02:30:39;;;;;;;33.40;3.40;;;;;;;;;;5074086;28;20067;-91
2023/12/11 02:33:20;;;;;;;18.38;2.58;;;;;;;;;;5098797;28;20043;-91
2023/12/11 02:35:51;;;;;;;21.23;4.20;;;;;;;;;;5100127;28;20051;-91
2023/12/11 02:38:20;;;;;;;37.10;3.17;;;;;;;;;;5100418;28;20383;-90
2023/12/11 02:41:00;;;;;;;26.77;2.90;;;;;;;;;;5100814;28;20040;-90
2023/12/11 02:43:43;;;;;;;21.58;1.83;;;;;;;;;;5100970;28;20086;-90
2023/12/11 02:46:24;;;;;;;24.58;3.03;;;;;;;;;;5076866;28;20238;-91
2023/12/11 02:49:05;;;;;;;33.33;3.20;;;;;;;;;;5080020;28;20039;-90
2023/12/11 03:02:41;;;;;;;35.08;2.58;;;;;;;;;;5121394;27;24421;-91
2023/12/11 03:05:22;;;;;;;18.15;3.40;;;;;;;;;;5104435;28;20073;-91
2023/12/11 03:07:59;;;;;;;17.02;2.78;;;;;;;;;;5103516;28;20096;-91
2023/12/11 03:10:47;;;;;;;24.80;3.45;;;;;;;;;;5104303;28;20121;-92
2023/12/11 03:13:28;;;;;;;28.13;4.13;;;;;;;;;;5096512;28;20108;-90
2023/12/11 03:16:15;;;;;;;16.73;3.33;;;;;;;;;;5103852;28;20122;-92
2023/12/11 03:18:44;;;;;;;24.85;3.63;;;;;;;;;;5121884;28;20051;-94
2023/12/11 03:21:15;;;;;;;29.35;3.42;;;;;;;;;;5103854;28;20051;-91
2023/12/11 03:31:41;;;;;;;22.13;2.70;;;;;;;;;;5580575;22;20048;-91
2023/12/11 03:34:14;;;;;;;28.70;4.05;;;;;;;;;;5102730;28;20048;-90
2023/12/11 03:36:46;;;;;;;18.05;2.90;;;;;;;;;;5105417;28;20071;-91
2023/12/11 03:39:22;;;;;;;27.20;3.33;;;;;;;;;;5104251;28;20048;-91
2023/12/11 03:41:56;;;;;;;17.45;2.85;;;;;;;;;;5099208;28;20052;-91
2023/12/11 03:44:38;;;;;;;26.75;2.67;;;;;;;;;;5098665;28;20094;-92
2023/12/11 03:47:21;;;;;;;29.50;2.55;;;;;;;;;;5097675;28;20056;-91
2023/12/11 03:49:57;;;;;;;31.43;3.40;;;;;;;;;;5099013;28;20052;-92
2023/12/11 03:52:27;;;;;;;25.80;3.17;;;;;;;;;;5104421;28;20036;-90
2023/12/11 03:55:08;;;;;;;27.17;4.70;;;;;;;;;;5168103;22;20127;-91
2023/12/11 03:57:43;;;;;;;30.35;3.38;;;;;;;;;;5102528;28;20286;-90
2023/12/11 04:00:20;;;;;;;27.27;4.13;;;;;;;;;;5103830;28;20048;-90
2023/12/11 04:02:53;;;;;;;30.58;3.47;;;;;;;;;;5091828;28;20059;-91
2023/12/11 04:05:25;;;;;;;25.55;3.28;;;;;;;;;;5089319;28;20219;-91
2023/12/11 04:08:06;;;;;;;23.60;2.60;;;;;;;;;;5087609;28;20063;-92
2023/12/11 04:10:44;;;;;;;20.38;2.67;;;;;;;;;;5090345;28;20078;-92
2023/12/11 04:13:25;;;;;;;44.95;4.10;;;;;;;;;;5089768;28;20052;-92
2023/12/11 04:15:59;;;;;;;32.20;3.58;;;;;;;;;;5087102;28;20366;-91
2023/12/11 04:18:36;;;;;;;20.70;3.55;;;;;;;;;;5089864;28;20441;-92
2023/12/11 04:21:07;;;;;;;18.88;3.15;;;;;;;;;;5087914;28;20074;-90
2023/12/11 04:23:50;;;;;;;20.52;3.40;;;;;;;;;;5088320;28;20177;-90
2023/12/11 04:26:33;;;;;;;34.47;4.05;;;;;;;;;;5089198;28;20105;-90
2023/12/11 04:29:06;;;;;;;24.13;2.88;;;;;;;;;;5088716;28;20047;-91
2023/12/11 04:31:46;;;;;;;22.60;2.80;;;;;;;;;;5105718;28;20059;-90
2023/12/11 04:34:14;;;;;;;22.60;2.97;;;;;;;;;;5088635;28;20059;-91
2023/12/11 04:36:43;;;;;;;27.42;4.07;;;;;;;;;;5089011;28;20044;-91
2023/12/11 04:39:27;;;;;;;44.97;3.67;;;;;;;;;;5090438;28;20134;-92
2023/12/11 04:41:59;;;;;;;27.25;2.92;;;;;;;;;;5089461;28;20101;-92
2023/12/11 04:44:33;;;;;;;26.00;4.43;;;;;;;;;;5090487;28;20142;-92
2023/12/11 04:47:04;;;;;;;27.67;3.42;;;;;;;;;;5090535;28;20056;-93
2023/12/11 04:49:36;;;;;;;33.78;3.60;;;;;;;;;;5090162;28;20044;-92
2023/12/11 04:52:05;;;;;;;16.77;2.65;;;;;;;;;;5090250;28;20048;-92
2023/12/11 04:54:41;;;;;;;19.90;2.80;;;;;;;;;;5106692;28;20051;-92
2023/12/11 04:57:12;;;;;;;29.88;2.88;;;;;;;;;;5107040;28;20058;-92
2023/12/11 04:59:47;;;;;;;25.40;3.13;;;;;;;;;;5093007;28;20032;-93
2023/12/11 05:02:33;;;;;;;32.85;3.35;;;;;;;;;;5090447;28;20048;-93
2023/12/11 05:05:01;;;;;;;30.52;3.05;;;;;;;;;;5089412;28;20048;-91
2023/12/11 05:07:29;;;;;;;43.33;3.88;;;;;;;;;;5093085;28;20055;-92
2023/12/11 05:10:01;;;;;;;27.90;2.97;;;;;;;;;;5095117;28;20059;-92
2023/12/11 05:12:34;;;;;;;28.50;3.85;;;;;;;;;;5095707;28;20052;-92
2023/12/11 05:15:06;;;;;;;14.52;2.75;;;;;;;;;;5095464;28;20032;-93
2023/12/11 05:17:34;;;;;;;24.17;2.90;;;;;;;;;;5095095;28;20063;-92
2023/12/11 05:20:12;;;;;;;26.08;3.15;;;;;;;;;;5094251;28;20044;-92
2023/12/11 05:22:56;;;;;;;26.17;3.70;;;;;;;;;;5078972;28;20033;-93
2023/12/11 05:25:29;;;;;;;24.73;3.33;;;;;;;;;;5107168;28;20048;-92
2023/12/11 05:28:13;;;;;;;17.10;3.15;;;;;;;;;;5088461;28;20052;-93
2023/12/11 05:30:41;;;;;;;15.48;3.08;;;;;;;;;;5088840;28;20088;-94
2023/12/11 05:33:10;;;;;;;20.33;3.35;;;;;;;;;;5085462;28;20044;-93
2023/12/11 05:35:47;;;;;;;26.58;2.90;;;;;;;;;;5087436;28;20071;-92
2023/12/11 05:38:21;;;;;;;25.25;3.40;;;;;;;;;;5088817;28;20086;-93
2023/12/11 05:40:58;;;;;;;22.30;3.30;;;;;;;;;;5092545;28;20044;-93
2023/12/11 05:43:35;;;;;;;19.90;3.08;;;;;;;;;;5091551;28;20052;-92
2023/12/11 05:46:37;;;;;;;;;;;;;;;;;;;;;
2023/12/11 05:51:58;;;;;;;18.60;3.67;;;;;;;;;;5102224;22;20086;-92
2023/12/11 05:54:30;;;;;;;19.38;2.47;;;;;;;;;;5082449;28;20040;-92
2023/12/11 05:57:04;;;;;;;18.63;2.47;;;;;;;;;;5081578;28;20156;-92
2023/12/11 05:59:35;;;;;;;12.77;1.55;;;;;;;;;;5082180;28;20045;-92
2023/12/11 06:02:03;;;;;;;9.00;1.55;;;;;;;;;;5083041;28;20048;-93
2023/12/11 06:04:33;;;;;;;7.88;1.88;;;;;;;;;;5082552;28;20056;-93
2023/12/11 06:07:09;;;;;;;12.20;3.03;;;;;;;;;;5083630;28;20036;-93
2023/12/11 06:09:37;;;;;;;21.15;2.50;;;;;;;;;;5080894;28;20124;-92
2023/12/11 06:12:08;;;;;;;16.60;3.17;;;;;;;;;;5083425;28;20048;-93
2023/12/11 06:15:06;;;;;;;13.93;2.53;;;;;;;;;;5095170;28;20736;-90
2023/12/11 06:17:39;;;;;;;18.85;3.55;;;;;;;;;;5080087;28;20064;-92
2023/12/11 06:20:10;;;;;;;17.13;3.58;;;;;;;;;;5077674;28;20050;-93
2023/12/11 06:22:38;;;;;;;39.83;3.30;;;;;;;;;;5080564;28;20090;-93
2023/12/11 06:25:12;;;;;;;16.20;3.25;;;;;;;;;;5082005;28;20517;-94
2023/12/11 06:27:42;;;;;;;22.48;3.72;;;;;;;;;;5077712;28;20059;-94
2023/12/11 06:30:15;;;;;;;26.45;3.42;;;;;;;;;;5077825;28;20049;-93
2023/12/11 06:32:46;;;;;;;28.38;4.80;;;;;;;;;;5075480;28;20118;-93
2023/12/11 06:35:14;;;;;;;14.27;3.22;;;;;;;;;;5081671;28;20053;-93
2023/12/11 06:37:49;;;;;;;29.35;4.65;;;;;;;;;;5073923;28;20048;-93
2023/12/11 06:40:18;;;;;;;17.40;3.17;;;;;;;;;;5079843;28;20053;-92
2023/12/11 06:42:49;;;;;;;21.50;3.40;;;;;;;;;;5074750;28;20056;-92
2023/12/11 06:45:18;;;;;;;24.27;3.72;;;;;;;;;;5073320;28;20120;-93
2023/12/11 06:47:51;;;;;;;16.00;4.68;;;;;;;;;;5075742;28;20086;-93
2023/12/11 06:50:19;;;;;;;18.40;3.72;;;;;;;;;;5077377;28;20041;-93
2023/12/11 06:52:51;;;;;;;17.15;3.35;;;;;;;;;;5073074;28;20401;-93
2023/12/11 06:55:28;;;;;;;24.38;3.67;;;;;;;;;;5074204;28;20112;-92
2023/12/11 06:58:05;;;;;;;17.92;2.40;;;;;;;;;;5075795;28;20060;-92
2023/12/11 15:49:52;;;;;;;9.45;1.25;;;;;;;;;;3800793;23;20297;-86
2023/12/11 15:52:28;;;;;;;0.95;0.68;;;;;;;;;;4926820;29;20119;-92
2023/12/11 15:55:02;;;;;;;2.72;0.52;;;;;;;;;;4928151;29;20166;-91
2023/12/11 15:57:36;;;;;;;1.73;0.60;;;;;;;;;;4929528;29;20056;-93
2023/12/11 16:00:11;;;;;;;0.75;0.55;;;;;;;;;;4930056;29;20044;-92
2023/12/11 16:02:49;;;;;;;1.20;0.55;;;;;;;;;;4928412;29;20055;-93
2023/12/11 16:05:21;;;;;;;0.52;0.47;;;;;;;;;;4928141;29;20056;-94
2023/12/11 16:07:55;;;;;;;0.70;0.47;;;;;;;;;;4927750;29;20069;-93
2023/12/11 16:10:26;;;;;;;0.85;0.50;;;;;;;;;;5144194;23;20107;-92
2023/12/11 16:12:56;;;;;;;0.43;0.43;;;;;;;;;;4947264;28;20079;-92
2023/12/11 16:18:14;;;;;;;0.73;0.47;;;;;;;;;;5010043;23;20063;-94
2023/12/11 16:20:49;;;;;;;3.40;0.57;;;;;;;;;;4949976;28;20051;-93
2023/12/11 16:23:32;;;;;;;4.43;0.50;;;;;;;;;;4951481;28;20059;-94
2023/12/11 16:26:18;;;;;;;7.72;1.17;;;;;;;;;;4953724;28;20039;-93
2023/12/11 16:28:55;;;;;;;3.28;1.02;;;;;;;;;;4953555;28;20044;-91
2023/12/11 16:31:27;;;;;;;5.80;0.82;;;;;;;;;;4944990;29;20371;-93
2023/12/11 16:33:55;;;;;;;0.73;0.65;;;;;;;;;;4946386;29;20084;-93
2023/12/11 16:36:28;;;;;;;2.40;0.90;;;;;;;;;;4946636;29;20048;-94
2023/12/11 16:39:01;;;;;;;4.68;1.15;;;;;;;;;;4946792;29;20052;-93
2023/12/11 16:41:31;;;;;;;4.90;0.90;;;;;;;;;;4949405;28;20051;-93
2023/12/11 16:44:05;;;;;;;1.33;0.70;;;;;;;;;;4945846;29;20055;-93
2023/12/11 16:46:33;;;;;;;3.75;1.13;;;;;;;;;;4945717;29;20052;-93
2023/12/11 16:49:03;;;;;;;3.83;1.27;;;;;;;;;;4945222;29;20048;-93
2023/12/11 16:51:34;;;;;;;4.88;1.20;;;;;;;;;;4944720;29;20395;-93
2023/12/11 16:54:03;;;;;;;3.42;1.90;;;;;;;;;;4943501;28;20416;-93
2023/12/11 16:56:34;;;;;;;6.60;1.52;;;;;;;;;;4943727;29;20344;-93
2023/12/11 16:59:08;;;;;;;5.00;1.55;;;;;;;;;;4942696;28;20138;-92
2023/12/11 17:01:52;;;;;;;5.28;1.20;;;;;;;;;;4916971;29;20111;-93
2023/12/11 17:04:40;;;;;;;7.97;1.95;;;;;;;;;;4945119;28;20056;-92
2023/12/11 17:07:14;;;;;;;6.07;1.70;;;;;;;;;;4948245;29;20339;-93
2023/12/11 17:09:58;;;;;;;4.55;1.75;;;;;;;;;;4947211;29;20050;-93
2023/12/11 17:12:41;;;;;;;10.48;3.40;;;;;;;;;;4946632;29;20061;-94
2023/12/11 17:15:20;;;;;;;19.73;3.22;;;;;;;;;;4950112;29;20072;-95
2023/12/11 17:18:04;;;;;;;17.00;1.60;;;;;;;;;;4948354;29;20147;-94
2023/12/11 17:20:48;;;;;;;6.40;1.92;;;;;;;;;;4949729;28;20048;-94
2023/12/11 17:23:21;;;;;;;7.68;1.27;;;;;;;;;;4948948;28;20051;-94
2023/12/11 17:26:00;;;;;;;2.47;1.45;;;;;;;;;;4951788;28;20055;-94
2023/12/11 17:28:46;;;;;;;12.50;1.83;;;;;;;;;;4949574;28;20091;-94
2023/12/11 17:31:17;;;;;;;10.75;1.13;;;;;;;;;;4948825;28;20048;-91
2023/12/11 17:33:46;;;;;;;7.97;1.63;;;;;;;;;;4948086;28;20111;-92
2023/12/11 17:36:19;;;;;;;19.40;3.35;;;;;;;;;;5022358;23;20051;-93
2023/12/11 17:38:54;;;;;;;11.15;2.33;;;;;;;;;;4946510;29;20060;-93
2023/12/11 17:41:27;;;;;;;13.25;3.15;;;;;;;;;;4946263;28;20051;-93
2023/12/11 17:43:55;;;;;;;3.58;1.63;;;;;;;;;;4945527;28;20055;-92
2023/12/11 17:46:25;;;;;;;9.35;1.98;;;;;;;;;;4949781;28;20052;-93
2023/12/11 17:49:03;;;;;;;6.63;1.30;;;;;;;;;;4945991;28;20162;-93
2023/12/11 17:51:41;;;;;;;15.40;3.15;;;;;;;;;;4948093;28;20093;-92
2023/12/11 17:54:13;;;;;;;9.43;2.05;;;;;;;;;;4945093;29;20047;-93
2023/12/11 17:56:43;;;;;;;7.28;1.88;;;;;;;;;;4947764;28;20059;-93
2023/12/11 17:59:26;;;;;;;5.68;1.50;;;;;;;;;;4947170;28;20102;-93
2023/12/11 18:01:56;;;;;;;10.52;1.40;;;;;;;;;;4947848;28;20050;-93
2023/12/11 18:04:27;;;;;;;8.63;1.67;;;;;;;;;;4951068;28;20036;-93
2023/12/11 18:06:56;;;;;;;6.25;1.13;;;;;;;;;;4950491;28;20111;-93
2023/12/11 18:09:24;;;;;;;20.08;2.22;;;;;;;;;;4949586;28;20107;-92
2023/12/11 18:11:56;;;;;;;14.55;1.85;;;;;;;;;;4947308;28;20055;-93
2023/12/11 18:14:37;;;;;;;9.07;1.50;;;;;;;;;;4945955;29;20405;-91
2023/12/11 18:17:04;;;;;;;15.73;1.33;;;;;;;;;;4945874;29;20051;-93
2023/12/11 18:19:36;;;;;;;7.38;1.77;;;;;;;;;;4946613;28;20066;-92
2023/12/11 18:22:18;;;;;;;9.80;1.30;;;;;;;;;;4950604;28;20070;-92
2023/12/11 18:24:48;;;;;;;4.70;1.00;;;;;;;;;;4952951;28;20103;-94
2023/12/11 18:27:21;;;;;;;11.68;1.75;;;;;;;;;;4949566;28;20107;-93
2023/12/11 18:29:50;;;;;;;4.90;2.10;;;;;;;;;;4946341;29;20087;-94
2023/12/11 18:32:29;;;;;;;10.10;1.52;;;;;;;;;;4947922;28;20078;-93
2023/12/11 18:35:00;;;;;;;8.88;1.33;;;;;;;;;;4948250;29;20063;-91
2023/12/11 18:37:35;;;;;;;5.80;1.02;;;;;;;;;;4947555;29;20063;-92
2023/12/11 18:40:08;;;;;;;5.65;1.23;;;;;;;;;;4947416;29;20039;-93
2023/12/11 18:42:36;;;;;;;7.70;1.25;;;;;;;;;;4946824;29;20104;-93
2023/12/11 18:45:06;;;;;;;5.18;1.33;;;;;;;;;;4948168;29;20051;-94
2023/12/11 18:47:45;;;;;;;10.52;1.30;;;;;;;;;;4948587;28;20094;-91
2023/12/11 18:50:22;;;;;;;9.35;1.00;;;;;;;;;;4949358;28;20300;-91
2023/12/11 18:52:51;;;;;;;10.20;1.48;;;;;;;;;;4949412;29;20047;-92
2023/12/11 18:55:23;;;;;;;4.22;0.82;;;;;;;;;;4948987;29;20069;-92
2023/12/11 18:57:57;;;;;;;15.98;1.45;;;;;;;;;;4950960;28;20048;-93
2023/12/11 19:00:27;;;;;;;11.43;0.85;;;;;;;;;;4951386;28;20115;-92
2023/12/11 19:02:56;;;;;;;5.72;1.65;;;;;;;;;;4945055;29;20058;-92
2023/12/11 19:05:32;;;;;;;9.90;1.27;;;;;;;;;;4946473;29;20362;-92
2023/12/11 19:08:18;;;;;;;13.38;1.30;;;;;;;;;;4948957;28;20052;-92
2023/12/11 19:11:01;;;;;;;4.03;0.88;;;;;;;;;;4943123;29;20048;-92
2023/12/11 19:13:46;;;;;;;5.93;1.60;;;;;;;;;;4944297;29;20027;-91
2023/12/11 19:16:23;;;;;;;4.78;0.93;;;;;;;;;;4943345;29;20044;-93
2023/12/11 19:18:52;;;;;;;22.13;1.88;;;;;;;;;;4945531;28;20036;-91
2023/12/11 19:21:27;;;;;;;12.85;1.65;;;;;;;;;;4952823;28;20127;-91
2023/12/11 19:23:58;;;;;;;13.02;0.80;;;;;;;;;;4952121;28;20052;-91
2023/12/11 19:26:26;;;;;;;4.32;1.27;;;;;;;;;;4947227;29;20115;-91
2023/12/11 19:29:10;;;;;;;10.30;2.03;;;;;;;;;;4947738;29;20365;-92
2023/12/11 19:31:54;;;;;;;11.93;0.82;;;;;;;;;;4948901;29;20062;-92
2023/12/11 19:34:37;;;;;;;7.82;1.67;;;;;;;;;;4948399;29;20063;-92
2023/12/11 19:37:22;;;;;;;12.30;1.08;;;;;;;;;;4948527;29;20061;-92
2023/12/11 19:40:06;;;;;;;9.35;1.10;;;;;;;;;;4951620;28;20047;-90
2023/12/11 19:42:48;;;;;;;7.82;1.65;;;;;;;;;;4950018;29;20083;-91
2023/12/11 19:45:32;;;;;;;7.93;1.45;;;;;;;;;;4949791;29;20062;-92
2023/12/11 19:48:13;;;;;;;5.53;1.17;;;;;;;;;;4950122;28;20040;-93
2023/12/11 19:50:54;;;;;;;7.90;1.63;;;;;;;;;;4950639;29;20054;-92
2023/12/11 19:53:36;;;;;;;2.03;0.80;;;;;;;;;;4951661;29;20062;-92
2023/12/11 19:56:37;;;;;;;8.98;1.63;;;;;;;;;;4950474;28;20113;-91
2023/12/11 19:59:20;;;;;;;6.85;1.13;;;;;;;;;;4948785;29;20063;-92
2023/12/11 20:01:50;;;;;;;6.38;1.00;;;;;;;;;;4949880;29;20063;-92
2023/12/11 20:04:33;;;;;;;4.65;1.50;;;;;;;;;;4947328;29;20316;-91
2023/12/11 20:07:13;;;;;;;6.78;1.27;;;;;;;;;;4948214;29;20094;-91
2023/12/11 20:09:56;;;;;;;7.63;1.20;;;;;;;;;;4926221;29;20059;-91
2023/12/11 20:12:39;;;;;;;12.88;2.00;;;;;;;;;;4949573;28;20043;-92
2023/12/11 20:15:23;;;;;;;10.90;1.73;;;;;;;;;;4949288;29;20051;-93
2023/12/11 20:18:12;;;;;;;7.72;1.77;;;;;;;;;;4946417;29;20133;-92
2023/12/11 20:20:58;;;;;;;6.82;1.88;;;;;;;;;;4949475;29;20098;-91
2023/12/11 20:23:39;;;;;;;5.90;1.10;;;;;;;;;;4951242;28;20071;-92
2023/12/11 20:26:21;;;;;;;4.75;1.30;;;;;;;;;;4949715;29;20047;-92
2023/12/11 20:29:06;;;;;;;7.93;1.75;;;;;;;;;;4950442;29;20094;-92
2023/12/11 20:31:51;;;;;;;12.38;2.22;;;;;;;;;;4948582;29;20083;-92
2023/12/11 20:34:39;;;;;;;12.25;1.63;;;;;;;;;;4952248;28;20050;-92
2023/12/11 20:37:24;;;;;;;6.03;1.95;;;;;;;;;;4946648;29;20043;-91
2023/12/11 20:40:05;;;;;;;9.07;1.60;;;;;;;;;;4946217;28;20058;-90
2023/12/11 20:42:46;;;;;;;9.10;1.45;;;;;;;;;;4946944;29;20324;-92
2023/12/11 20:45:29;;;;;;;2.90;1.42;;;;;;;;;;4947221;29;20058;-92
2023/12/11 20:48:11;;;;;;;2.40;1.10;;;;;;;;;;4948090;29;20056;-91
2023/12/11 20:50:50;;;;;;;10.50;2.42;;;;;;;;;;4949339;29;20056;-91
2023/12/11 20:53:21;;;;;;;5.15;1.48;;;;;;;;;;4947556;29;20111;-92
2023/12/11 20:55:50;;;;;;;14.23;1.95;;;;;;;;;;4948013;29;20055;-91
2023/12/11 20:58:19;;;;;;;4.70;1.15;;;;;;;;;;4947584;29;20062;-92
2023/12/11 21:01:00;;;;;;;6.45;1.33;;;;;;;;;;4945778;29;20103;-92
2023/12/11 21:03:30;;;;;;;3.92;1.70;;;;;;;;;;4947053;29;20158;-92
2023/12/11 21:06:04;;;;;;;10.90;1.92;;;;;;;;;;4947752;29;20097;-91
2023/12/11 21:08:45;;;;;;;11.90;1.98;;;;;;;;;;4947479;28;20060;-91
2023/12/11 21:11:28;;;;;;;7.60;1.50;;;;;;;;;;4947565;29;20351;-91
2023/12/11 21:14:09;;;;;;;6.18;1.50;;;;;;;;;;4946344;29;20061;-91
2023/12/11 21:16:38;;;;;;;8.85;1.40;;;;;;;;;;4949841;28;20041;-91
2023/12/11 21:19:23;;;;;;;9.77;1.52;;;;;;;;;;4944998;29;20055;-92
2023/12/11 21:22:12;;;;;;;4.60;1.13;;;;;;;;;;4951133;28;20039;-92
2023/12/11 21:24:50;;;;;;;4.88;1.20;;;;;;;;;;4954455;28;20255;-91
2023/12/11 21:27:34;;;;;;;10.48;2.08;;;;;;;;;;4952583;28;20050;-92
2023/12/11 21:30:15;;;;;;;9.23;1.58;;;;;;;;;;4952859;28;20084;-91
2023/12/11 21:32:56;;;;;;;3.53;2.03;;;;;;;;;;4952695;28;20046;-92
2023/12/11 21:35:41;;;;;;;11.77;1.20;;;;;;;;;;4962435;23;20046;-90
2023/12/11 21:38:20;;;;;;;5.93;1.08;;;;;;;;;;4951982;28;20408;-89
2023/12/11 21:41:03;;;;;;;6.05;1.63;;;;;;;;;;4946127;29;20035;-90
2023/12/11 21:43:45;;;;;;;5.55;1.98;;;;;;;;;;4947796;28;20024;-91
2023/12/11 21:46:20;;;;;;;4.97;1.60;;;;;;;;;;4951334;28;20042;-90
2023/12/11 21:48:48;;;;;;;3.53;1.50;;;;;;;;;;4949894;28;20103;-90
2023/12/11 21:51:27;;;;;;;7.60;1.55;;;;;;;;;;4948834;29;20486;-90
2023/12/11 21:54:12;;;;;;;5.47;1.23;;;;;;;;;;4944920;29;20101;-90
2023/12/11 21:56:48;;;;;;;9.75;1.38;;;;;;;;;;4945232;29;20052;-91
2023/12/11 21:59:25;;;;;;;6.60;1.30;;;;;;;;;;4944903;29;20076;-90
2023/12/11 22:02:06;;;;;;;3.63;1.08;;;;;;;;;;4942886;28;20245;-90
2023/12/11 22:04:52;;;;;;;8.50;1.20;;;;;;;;;;4944534;29;20048;-90
2023/12/11 22:07:37;;;;;;;4.82;1.63;;;;;;;;;;4942200;29;20103;-89
2023/12/11 22:10:19;;;;;;;5.70;1.23;;;;;;;;;;4944748;28;20051;-89
2023/12/11 22:13:01;;;;;;;8.00;1.95;;;;;;;;;;4944263;29;20051;-91
2023/12/11 22:15:43;;;;;;;4.82;1.23;;;;;;;;;;4944490;29;20103;-91
2023/12/11 22:18:26;;;;;;;3.45;0.93;;;;;;;;;;4943571;29;20047;-90
2023/12/11 22:21:24;;;;;;;9.27;1.02;;;;;;;;;;4941464;29;20059;-91
2023/12/11 22:24:05;;;;;;;9.52;1.23;;;;;;;;;;4940443;29;20059;-90
2023/12/11 22:26:46;;;;;;;6.93;1.25;;;;;;;;;;4942688;29;20050;-90
2023/12/11 22:29:32;;;;;;;6.50;1.17;;;;;;;;;;4943923;29;20044;-90
2023/12/11 22:32:16;;;;;;;5.60;1.85;;;;;;;;;;4906972;29;20111;-89
2023/12/11 22:34:58;;;;;;;11.88;1.48;;;;;;;;;;4940899;29;20090;-90
2023/12/11 22:37:48;;;;;;;5.57;1.08;;;;;;;;;;4943933;29;20417;-90
2023/12/11 22:40:33;;;;;;;2.90;1.20;;;;;;;;;;4944221;29;20063;-90
2023/12/11 22:43:21;;;;;;;5.60;1.08;;;;;;;;;;4943707;29;20058;-90
2023/12/11 22:46:05;;;;;;;10.82;1.35;;;;;;;;;;4943779;29;20047;-91
2023/12/11 22:48:40;;;;;;;8.57;1.23;;;;;;;;;;4942060;29;20119;-90
2023/12/11 22:51:11;;;;;;;2.83;1.23;;;;;;;;;;4943483;29;20044;-90
2023/12/11 22:53:54;;;;;;;10.35;1.38;;;;;;;;;;4942447;29;20036;-90
2023/12/11 22:56:35;;;;;;;12.30;1.83;;;;;;;;;;4940353;29;20200;-91
2023/12/11 22:59:17;;;;;;;1.15;0.93;;;;;;;;;;4948864;29;20051;-90
2023/12/11 23:02:02;;;;;;;5.28;1.52;;;;;;;;;;4949452;29;20051;-91
2023/12/11 23:04:43;;;;;;;2.22;1.05;;;;;;;;;;4946602;29;20043;-91
2023/12/11 23:07:26;;;;;;;3.72;1.17;;;;;;;;;;4948462;29;20328;-91
2023/12/11 23:10:11;;;;;;;2.90;1.13;;;;;;;;;;4934218;29;20063;-91
2023/12/11 23:12:54;;;;;;;7.00;0.95;;;;;;;;;;4948709;29;20104;-91
2023/12/11 23:20:50;;;;;;;2.67;1.13;;;;;;;;;;5313065;23;20097;-89
2023/12/11 23:23:33;;;;;;;7.72;1.55;;;;;;;;;;5004112;23;20055;-91
2023/12/11 23:26:10;;;;;;;5.00;1.05;;;;;;;;;;4945891;29;20055;-90
2023/12/11 23:28:56;;;;;;;4.15;1.02;;;;;;;;;;4947001;29;20123;-91
2023/12/11 23:31:35;;;;;;;8.75;1.80;;;;;;;;;;4945520;29;20047;-90
2023/12/11 23:34:17;;;;;;;3.40;1.13;;;;;;;;;;4943688;29;20069;-90
2023/12/11 23:37:02;;;;;;;2.83;0.90;;;;;;;;;;4931637;29;20119;-91
2023/12/11 23:39:50;;;;;;;9.63;1.77;;;;;;;;;;4944948;29;20051;-90
2023/12/11 23:42:23;;;;;;;4.95;1.13;;;;;;;;;;4952047;29;20078;-91
2023/12/11 23:47:36;;;;;;;2.78;1.20;;;;;;;;;;4949085;29;20048;-90
2023/12/11 23:50:10;;;;;;;2.17;1.05;;;;;;;;;;4945997;29;20044;-90
2023/12/11 23:53:00;;;;;;;12.43;1.77;;;;;;;;;;4945578;29;20064;-90
2023/12/11 23:55:41;;;;;;;4.63;1.10;;;;;;;;;;4946647;29;20078;-90
2023/12/11 23:58:13;;;;;;;10.65;1.10;;;;;;;;;;4945525;29;20047;-89
